Time;durP1;ratioP1;P1;durP2;ratioP2;P2;SDS_P1;SDS_P2;PMS_P1;PMS_P2;Temp;Humidity;BMP_temperature;BMP_pressure;BME280_temperature;BME280_humidity;BME280_pressure;Samples;Min_cycle;Max_cycle;Signal;HPM_P1;HPM_P2
2023/07/02 00:01:18;;;;;;;17.27;7.78;;;;;;;19.60;100.00;98144.75;4968047;28;20077;-92
2023/07/02 00:03:44;;;;;;;16.25;8.10;;;;;;;19.56;100.00;98151.34;4971980;28;20067;-91
2023/07/02 00:06:10;;;;;;;14.45;7.65;;;;;;;19.40;100.00;98144.38;4964044;28;20038;-90
2023/07/02 00:08:36;;;;;;;16.27;7.85;;;;;;;19.42;100.00;98144.28;4959042;28;20047;-91
2023/07/02 00:11:05;;;;;;;17.45;7.45;;;;;;;19.29;100.00;98117.34;4962128;28;20057;-92
2023/07/02 00:13:31;;;;;;;18.33;7.88;;;;;;;19.43;100.00;98137.91;4965253;28;20047;-92
2023/07/02 00:15:58;;;;;;;18.25;8.18;;;;;;;19.41;100.00;98135.34;4960914;28;20130;-91
2023/07/02 00:18:28;;;;;;;16.02;7.68;;;;;;;19.24;100.00;98112.31;4961477;28;20046;-92
2023/07/02 00:20:54;;;;;;;17.40;7.82;;;;;;;19.42;100.00;98134.34;4963498;28;20045;-91
2023/07/02 00:23:21;;;;;;;16.40;7.68;;;;;;;19.45;100.00;98135.94;4967026;28;20107;-93
2023/07/02 00:25:47;;;;;;;21.27;7.60;;;;;;;19.29;100.00;98117.34;4960976;28;20078;-92
2023/07/02 00:28:14;;;;;;;13.60;7.40;;;;;;;19.19;100.00;98108.22;4963551;28;20055;-92
2023/07/02 00:30:40;;;;;;;15.60;7.60;;;;;;;19.17;100.00;98112.84;4973252;28;20043;-92
2023/07/02 00:33:05;;;;;;;14.13;8.15;;;;;;;19.29;100.00;98136.22;4961151;28;20050;-92
2023/07/02 00:35:31;;;;;;;17.85;8.10;;;;;;;19.17;100.00;98118.25;4957047;28;20055;-91
2023/07/02 00:37:57;;;;;;;18.38;7.90;;;;;;;19.25;100.00;98129.34;4960525;28;20055;-91
2023/07/02 00:40:23;;;;;;;17.52;7.90;;;;;;;19.22;100.00;98132.25;4968481;28;20411;-91
2023/07/02 00:42:49;;;;;;;16.48;8.95;;;;;;;19.23;100.00;98142.06;4966382;28;20073;-93
2023/07/02 00:45:16;;;;;;;15.35;8.57;;;;;;;19.15;100.00;98120.19;4970089;28;20046;-92
2023/07/02 00:47:42;;;;;;;16.17;8.70;;;;;;;19.30;100.00;98143.34;4961634;28;20523;-91
2023/07/02 00:50:09;;;;;;;22.35;9.07;;;;;;;19.26;100.00;98125.69;4968010;28;20039;-91
2023/07/02 00:52:35;;;;;;;22.83;9.18;;;;;;;19.18;100.00;98114.59;4960080;28;20105;-91
2023/07/02 00:55:02;;;;;;;22.70;9.23;;;;;;;19.36;100.00;98144.72;4967869;28;20046;-91
2023/07/02 00:57:29;;;;;;;17.85;9.23;;;;;;;19.18;100.00;98107.34;4965721;28;20053;-92
2023/07/02 00:59:56;;;;;;;17.98;9.00;;;;;;;19.21;100.00;98111.66;4960597;28;20077;-91
2023/07/02 01:02:25;;;;;;;20.20;10.00;;;;;;;19.35;100.00;98133.09;4978081;28;20059;-92
2023/07/02 01:04:52;;;;;;;17.15;8.40;;;;;;;19.31;100.00;98128.88;4961394;28;20509;-90
2023/07/02 01:07:17;;;;;;;21.52;9.00;;;;;;;19.29;100.00;98123.59;4976914;28;20047;-91
2023/07/02 01:09:43;;;;;;;17.17;9.00;;;;;;;19.18;100.00;98107.34;4959489;28;20031;-91
2023/07/02 01:12:10;;;;;;;20.48;9.80;;;;;;;19.29;100.00;98131.69;4966482;28;20046;-91
2023/07/02 01:14:39;;;;;;;21.23;10.27;;;;;;;19.21;100.00;98126.00;4969143;28;20405;-92
2023/07/02 01:17:06;;;;;;;18.80;9.77;;;;;;;19.18;100.00;98126.22;4964127;28;20058;-93
2023/07/02 01:19:51;;;;;;;20.85;9.05;;;;;;;19.06;100.00;98114.50;4960891;28;20047;-91
2023/07/02 01:22:18;;;;;;;17.25;8.63;;;;;;;19.07;100.00;98121.59;4968270;28;20398;-92
2023/07/02 01:24:47;;;;;;;19.58;9.65;;;;;;;19.09;100.00;98116.97;4967907;28;20047;-93
2023/07/02 01:27:13;;;;;;;21.08;10.75;;;;;;;19.20;100.00;98134.22;4969247;28;20448;-92
2023/07/02 01:29:39;;;;;;;24.88;9.55;;;;;;;19.19;100.00;98135.16;4964060;28;20062;-93
2023/07/02 01:32:05;;;;;;;24.10;11.05;;;;;;;19.19;100.00;98136.06;4961736;28;20477;-91
2023/07/02 01:34:31;;;;;;;22.73;9.27;;;;;;;19.12;100.00;98131.19;4963619;28;20039;-91
2023/07/02 01:36:59;;;;;;;18.05;9.45;;;;;;;19.14;100.00;98129.25;4963525;28;20555;-92
2023/07/02 01:39:25;;;;;;;17.83;9.15;;;;;;;19.10;100.00;98115.13;4964775;28;20057;-92
2023/07/02 01:41:51;;;;;;;19.63;9.10;;;;;;;19.12;100.00;98123.13;4967005;28;20134;-91
2023/07/02 01:44:17;;;;;;;17.95;8.68;;;;;;;19.17;100.00;98132.59;4965446;28;20493;-92
2023/07/02 01:46:43;;;;;;;20.42;9.40;;;;;;;19.17;100.00;98131.72;4965292;28;20074;-91
2023/07/02 01:49:09;;;;;;;16.58;7.97;;;;;;;19.13;100.00;98108.66;4969342;28;20039;-92
2023/07/02 01:51:35;;;;;;;19.88;9.65;;;;;;;19.07;100.00;98104.59;4965488;28;20062;-91
2023/07/02 01:54:02;;;;;;;21.98;9.70;;;;;;;19.06;100.00;98110.94;4969459;28;20047;-90
2023/07/02 01:56:28;;;;;;;20.38;10.25;;;;;;;19.08;100.00;98120.66;4970173;28;20048;-91
2023/07/02 01:58:54;;;;;;;20.92;9.68;;;;;;;19.14;100.00;98129.25;4961234;28;20050;-91
2023/07/02 02:01:20;;;;;;;20.45;9.93;;;;;;;19.15;100.00;98137.25;4962527;28;20093;-91
2023/07/02 02:03:46;;;;;;;24.50;9.23;;;;;;;19.12;100.00;98133.91;4958085;28;20039;-90
2023/07/02 02:06:12;;;;;;;20.45;9.52;;;;;;;19.14;100.00;98123.88;4950796;28;20077;-92
2023/07/02 02:08:37;;;;;;;17.60;8.70;;;;;;;19.02;100.00;98102.22;4951195;28;20143;-91
2023/07/02 02:11:05;;;;;;;20.10;9.35;;;;;;;19.19;100.00;98119.88;4957222;28;20070;-92
2023/07/02 02:13:31;;;;;;;24.08;9.73;;;;;;;19.11;100.00;98108.78;4953471;28;20062;-92
2023/07/02 02:15:57;;;;;;;18.42;9.95;;;;;;;19.09;100.00;98098.09;4971054;28;21556;-91
2023/07/02 02:18:23;;;;;;;19.02;10.32;;;;;;;19.19;100.00;98121.69;4953318;28;20047;-91
2023/07/02 02:20:49;;;;;;;17.40;10.13;;;;;;;19.07;100.00;98097.34;4953053;28;20117;-91
2023/07/02 02:23:15;;;;;;;23.02;9.25;;;;;;;19.09;100.00;98103.50;4955847;28;20035;-92
2023/07/02 02:25:40;;;;;;;20.85;9.80;;;;;;;19.28;100.00;98129.13;4953400;28;20585;-91
2023/07/02 02:28:08;;;;;;;23.77;10.88;;;;;;;19.15;100.00;98104.91;4955892;28;20397;-91
2023/07/02 02:30:34;;;;;;;21.70;9.50;;;;;;;19.17;100.00;98120.94;4956044;28;20038;-92
2023/07/02 02:32:59;;;;;;;19.50;10.50;;;;;;;19.15;100.00;98107.59;4955140;28;20099;-92
2023/07/02 02:35:25;;;;;;;24.27;10.63;;;;;;;19.22;100.00;98125.03;4953280;28;20054;-91
2023/07/02 02:37:51;;;;;;;19.67;10.07;;;;;;;19.13;100.00;98111.34;4957932;28;20071;-92
2023/07/02 02:40:17;;;;;;;20.55;10.70;;;;;;;19.17;100.00;98118.25;4958030;28;20062;-92
2023/07/02 02:42:43;;;;;;;23.73;10.73;;;;;;;19.29;100.00;98134.38;4956308;29;20098;-92
2023/07/02 02:45:11;;;;;;;21.20;11.07;;;;;;;19.31;100.00;98136.97;4952754;28;20122;-93
2023/07/02 02:47:37;;;;;;;20.08;10.52;;;;;;;19.25;100.00;98130.19;4956166;28;20035;-92
2023/07/02 02:50:03;;;;;;;21.88;11.30;;;;;;;19.20;100.00;98126.13;4955921;28;20039;-92
2023/07/02 02:52:29;;;;;;;21.63;11.68;;;;;;;19.21;100.00;98128.69;4953136;28;20047;-92
2023/07/02 02:54:55;;;;;;;20.15;11.48;;;;;;;19.17;100.00;98120.94;4955849;28;20397;-92
2023/07/02 02:57:21;;;;;;;22.75;11.55;;;;;;;19.10;100.00;98109.75;4954907;28;20054;-91
2023/07/02 02:59:46;;;;;;;22.65;10.95;;;;;;;19.22;100.00;98130.41;4953837;28;20139;-91
2023/07/02 03:02:14;;;;;;;27.10;11.35;;;;;;;19.20;100.00;98126.13;4956180;28;20070;-93
2023/07/02 03:04:41;;;;;;;23.10;10.07;;;;;;;19.13;100.00;98125.69;4965036;28;20142;-92
2023/07/02 03:07:07;;;;;;;24.20;12.45;;;;;;;19.08;100.00;98120.66;4967147;28;20115;-91
2023/07/02 03:09:33;;;;;;;22.95;11.77;;;;;;;19.17;100.00;98138.00;4960642;28;20047;-91
2023/07/02 03:11:59;;;;;;;30.65;12.25;;;;;;;19.07;100.00;98123.44;4960800;28;20098;-92
2023/07/02 03:14:25;;;;;;;24.73;13.23;;;;;;;19.15;100.00;98137.25;4965965;28;20453;-91
2023/07/02 03:16:51;;;;;;;24.52;12.75;;;;;;;19.15;100.00;98131.84;4961044;28;20058;-91
2023/07/02 03:19:18;;;;;;;23.90;13.02;;;;;;;19.15;100.00;98133.66;4965521;28;20050;-91
2023/07/02 03:21:44;;;;;;;30.30;14.20;;;;;;;19.10;100.00;98120.53;4962319;28;20046;-92
2023/07/02 03:24:13;;;;;;;24.33;12.82;;;;;;;19.13;100.00;98125.69;4976868;28;20034;-92
2023/07/02 03:26:39;;;;;;;27.70;13.40;;;;;;;19.01;100.00;98110.41;4964994;28;20052;-91
2023/07/02 03:29:04;;;;;;;30.25;13.70;;;;;;;18.99;100.00;98110.50;4962539;28;20139;-90
2023/07/02 03:31:30;;;;;;;31.63;13.90;;;;;;;18.96;100.00;98112.59;4962883;28;20039;-91
2023/07/02 03:33:56;;;;;;;27.92;13.65;;;;;;;18.97;100.00;98123.22;4959261;28;20069;-94
2023/07/02 03:36:23;;;;;;;24.55;13.90;;;;;;;19.11;100.00;98141.13;4965787;28;20122;-93
2023/07/02 03:38:49;;;;;;;27.50;12.68;;;;;;;19.01;100.00;98122.03;4979381;28;20042;-93
2023/07/02 03:41:15;;;;;;;28.58;13.27;;;;;;;19.03;100.00;98133.56;4959529;28;20841;-92
2023/07/02 03:43:41;;;;;;;26.52;12.93;;;;;;;19.04;100.00;98129.94;4965394;28;20258;-92
2023/07/02 03:46:07;;;;;;;29.05;13.00;;;;;;;19.08;100.00;98142.22;4963082;28;20035;-92
2023/07/02 03:48:33;;;;;;;24.48;13.57;;;;;;;19.05;100.00;98142.41;4966495;28;20043;-92
2023/07/02 03:50:59;;;;;;;26.05;13.30;;;;;;;19.04;100.00;98137.13;4957901;28;20062;-92
2023/07/02 03:53:26;;;;;;;30.83;15.07;;;;;;;18.97;100.00;98152.00;4961289;28;20055;-93
2023/07/02 03:55:52;;;;;;;28.27;15.00;;;;;;;19.00;100.00;98146.44;4976243;28;20042;-93
2023/07/02 03:58:17;;;;;;;33.10;15.77;;;;;;;19.03;100.00;98162.38;4964312;28;20039;-92
2023/07/02 04:00:44;;;;;;;32.50;15.88;;;;;;;18.95;100.00;98152.13;4963169;28;20039;-94
2023/07/02 04:03:09;;;;;;;32.80;15.82;;;;;;;19.03;100.00;98160.53;4960744;28;20390;-92
2023/07/02 04:05:35;;;;;;;32.85;15.63;;;;;;;19.03;100.00;98149.75;4958086;28;20046;-93
2023/07/02 04:08:01;;;;;;;37.72;16.08;;;;;;;18.99;100.00;98140.16;4958435;28;20051;-93
2023/07/02 04:10:28;;;;;;;32.85;16.77;;;;;;;19.09;100.00;98152.00;4962354;28;20039;-93
2023/07/02 04:12:54;;;;;;;29.23;15.15;;;;;;;19.18;100.00;98174.75;4959388;28;20077;-93
2023/07/02 04:15:20;;;;;;;29.83;14.98;;;;;;;19.22;100.00;98170.00;4957263;28;20434;-93
2023/07/02 04:17:46;;;;;;;30.75;14.10;;;;;;;19.21;100.00;98168.25;4964842;28;20039;-93
2023/07/02 04:20:12;;;;;;;25.67;14.18;;;;;;;19.24;100.00;98168.91;4961215;28;20039;-92
2023/07/02 04:22:37;;;;;;;25.63;12.45;;;;;;;19.26;100.00;98169.66;4963264;28;20074;-93
2023/07/02 04:25:04;;;;;;;28.88;13.10;;;;;;;19.32;100.00;98178.28;4961890;28;20039;-92
2023/07/02 04:27:31;;;;;;;23.52;12.88;;;;;;;19.35;100.00;98188.84;4971751;28;20078;-92
2023/07/02 04:29:57;;;;;;;24.35;12.05;;;;;;;19.37;100.00;98187.75;4962102;28;20525;-90
2023/07/02 04:32:24;;;;;;;24.45;12.27;;;;;;;19.34;100.00;98171.78;4961542;28;20047;-91
2023/07/02 04:34:50;;;;;;;27.20;11.70;;;;;;;19.48;100.00;98189.69;4960327;28;20053;-92
2023/07/02 04:37:16;;;;;;;24.02;11.65;;;;;;;19.58;100.00;98198.81;4957074;28;20039;-92
2023/07/02 04:39:41;;;;;;;23.58;11.38;;;;;;;19.68;100.00;98196.31;4959403;28;20098;-94
2023/07/02 04:42:09;;;;;;;30.20;13.00;;;;;;;19.67;100.00;98173.88;4957168;28;20118;-92
2023/07/02 04:44:37;;;;;;;22.30;12.13;;;;;;;19.79;100.00;98187.44;4962423;28;20046;-92
2023/07/02 04:47:03;;;;;;;29.95;12.48;;;;;;;19.76;100.00;98177.75;4969029;28;20071;-92
2023/07/02 04:49:29;;;;;;;20.00;10.20;;;;;;;19.86;100.00;98202.19;4970398;28;20134;-92
2023/07/02 04:51:55;;;;;;;24.23;10.55;;;;;;;19.80;100.00;98200.84;4960350;28;20488;-92
2023/07/02 04:54:21;;;;;;;20.08;10.10;;;;;;;19.82;100.00;98198.00;4965442;28;20119;-91
2023/07/02 04:56:47;;;;;;;21.33;10.80;;;;;;;19.82;100.00;98190.81;4964906;28;20039;-92
2023/07/02 04:59:13;;;;;;;22.77;10.05;;;;;;;19.81;100.00;98191.75;4970745;28;20050;-92
2023/07/02 05:01:41;;;;;;;20.30;9.90;;;;;;;19.87;100.00;98195.84;4963407;28;20051;-93
2023/07/02 05:04:09;;;;;;;22.73;11.25;;;;;;;19.97;100.00;98215.75;4959940;28;20050;-91
2023/07/02 05:06:35;;;;;;;20.75;10.38;;;;;;;19.96;100.00;98205.94;4965862;28;20053;-92
2023/07/02 05:09:00;;;;;;;20.58;10.77;;;;;;;19.82;100.00;98187.22;4969255;28;20051;-92
2023/07/02 05:11:38;;;;;;;23.17;10.93;;;;;;;19.83;100.00;98192.50;4968914;28;20401;-92
2023/07/02 05:14:04;;;;;;;23.98;10.88;;;;;;;19.82;100.00;98198.88;4962638;28;20133;-91
2023/07/02 05:16:30;;;;;;;21.85;11.07;;;;;;;19.61;100.00;98198.59;4964624;28;20151;-92
2023/07/02 05:18:57;;;;;;;17.10;10.75;;;;;;;19.78;100.00;98210.88;4967944;28;20034;-92
2023/07/02 05:21:23;;;;;;;21.33;11.52;;;;;;;19.74;100.00;98195.88;4967349;28;20039;-92
2023/07/02 05:23:49;;;;;;;23.58;10.70;;;;;;;19.90;100.00;98211.78;4962702;28;20046;-92
2023/07/02 05:26:15;;;;;;;23.65;11.00;;;;;;;19.95;100.00;98212.34;4979584;28;20054;-92
2023/07/02 05:28:40;;;;;;;25.98;11.02;;;;;;;19.98;100.00;98211.25;4962511;28;20039;-92
2023/07/02 05:31:06;;;;;;;20.13;10.68;;;;;;;20.05;100.00;98207.94;4973499;28;20122;-91
2023/07/02 05:33:33;;;;;;;19.73;10.73;;;;;;;20.19;100.00;98215.03;4965748;28;20510;-92
2023/07/02 05:36:00;;;;;;;20.15;10.93;;;;;;;20.13;100.00;98207.41;4965940;28;20042;-92
2023/07/02 05:38:26;;;;;;;21.20;10.35;;;;;;;20.08;100.00;98198.75;4959968;28;20079;-92
2023/07/02 05:40:52;;;;;;;21.48;10.60;;;;;;;20.25;100.00;98217.25;4963833;28;20047;-92
2023/07/02 05:43:18;;;;;;;18.88;10.40;;;;;;;20.17;100.00;98213.41;4965944;28;20409;-93
2023/07/02 05:45:44;;;;;;;21.83;10.20;;;;;;;20.27;100.00;98226.09;4968808;28;20053;-92
2023/07/02 05:48:09;;;;;;;24.88;10.93;;;;;;;20.33;100.00;98210.44;4964670;28;20035;-91
2023/07/02 05:50:35;;;;;;;22.27;10.50;;;;;;;20.54;100.00;98233.09;4960057;28;20036;-92
2023/07/02 05:53:02;;;;;;;22.02;10.82;;;;;;;20.52;100.00;98211.59;4980873;28;20047;-92
2023/07/02 05:55:28;;;;;;;22.88;9.95;;;;;;;20.74;100.00;98223.47;4979307;28;20047;-92
2023/07/02 05:57:57;;;;;;;20.17;9.88;;;;;;;20.85;100.00;98236.16;4963901;28;20493;-91
2023/07/02 06:00:23;;;;;;;17.67;9.32;;;;;;;20.97;100.00;98235.22;4961298;28;20039;-91
2023/07/02 06:02:49;;;;;;;14.80;8.60;;;;;;;21.10;100.00;98235.09;4966492;28;20055;-92
2023/07/02 06:05:15;;;;;;;16.55;8.63;;;;;;;21.24;100.00;98234.88;4958279;28;20056;-93
2023/07/02 06:07:40;;;;;;;19.75;8.45;;;;;;;21.48;100.00;98240.19;4966239;28;20082;-92
2023/07/02 06:10:09;;;;;;;14.38;8.80;;;;;;;21.66;100.00;98236.97;4967091;28;20094;-91
2023/07/02 06:12:34;;;;;;;17.95;8.50;;;;;;;21.81;100.00;98238.44;4977420;28;20040;-91
2023/07/02 06:15:00;;;;;;;14.73;8.23;;;;;;;21.98;100.00;98244.34;4960386;28;20142;-91
2023/07/02 06:17:26;;;;;;;16.60;7.75;;;;;;;22.20;100.00;98238.84;4975970;28;20065;-91
2023/07/02 06:19:52;;;;;;;19.65;8.85;;;;;;;22.14;100.00;98240.22;4975671;28;20042;-91
2023/07/02 06:22:18;;;;;;;15.45;7.75;;;;;;;21.93;100.00;98223.91;4961917;28;20489;-92
2023/07/02 06:24:44;;;;;;;14.95;8.20;;;;;;;21.84;100.00;98240.91;4962598;28;20086;-93
2023/07/02 06:27:11;;;;;;;15.98;8.10;;;;;;;21.71;100.00;98240.19;4971849;28;20515;-92
2023/07/02 06:29:37;;;;;;;14.35;7.20;;;;;;;21.43;100.00;98214.50;4981413;28;20035;-92
2023/07/02 06:32:04;;;;;;;18.70;7.93;;;;;;;21.40;100.00;98234.50;4965521;28;20061;-91
2023/07/02 06:34:30;;;;;;;15.15;7.30;;;;;;;21.64;100.00;98244.38;4962777;28;20043;-92
2023/07/02 06:36:56;;;;;;;16.20;7.22;;;;;;;21.76;100.00;98248.78;4975802;28;20046;-92
2023/07/02 06:39:21;;;;;;;12.82;7.00;;;;;;;21.91;100.00;98239.41;4961996;28;20043;-91
2023/07/02 06:41:47;;;;;;;14.23;7.57;;;;;;;22.03;100.00;98247.50;4964356;28;20035;-91
2023/07/02 06:44:15;;;;;;;13.82;8.10;;;;;;;22.36;100.00;98235.78;4958341;28;20042;-91
2023/07/02 06:46:41;;;;;;;12.05;7.47;;;;;;;22.70;100.00;98260.00;4960398;28;20086;-92
2023/07/02 06:49:07;;;;;;;13.25;6.72;;;;;;;22.57;100.00;98241.19;4959791;28;20043;-92
2023/07/02 06:51:34;;;;;;;13.50;7.32;;;;;;;22.76;100.00;98260.31;4961296;28;20127;-92
2023/07/02 06:53:59;;;;;;;13.20;7.35;;;;;;;22.67;100.00;98230.47;4959478;28;20147;-91
2023/07/02 06:56:25;;;;;;;14.00;7.25;;;;;;;22.85;100.00;98258.69;4964993;28;20129;-92
2023/07/02 06:58:51;;;;;;;13.30;6.82;;;;;;;22.71;100.00;98259.03;4966985;28;20039;-91
2023/07/02 07:01:18;;;;;;;11.80;6.90;;;;;;;22.70;100.00;98260.00;4962652;28;20059;-91
2023/07/02 07:03:44;;;;;;;13.65;7.93;;;;;;;22.84;100.00;98253.41;4953307;28;20077;-91
2023/07/02 07:06:12;;;;;;;14.07;7.70;;;;;;;22.95;100.00;98254.19;4954145;28;20066;-93
2023/07/02 07:08:38;;;;;;;15.98;6.97;;;;;;;22.96;100.00;98249.63;4954662;28;20453;-91
2023/07/02 07:11:04;;;;;;;10.80;6.72;;;;;;;23.04;100.00;98233.59;4968092;28;20039;-90
2023/07/02 07:13:30;;;;;;;11.95;6.75;;;;;;;23.69;100.00;98247.75;4949846;28;20039;-91
2023/07/02 07:15:56;;;;;;;14.15;7.63;;;;;;;23.85;100.00;98258.13;4964385;28;20391;-92
2023/07/02 07:18:23;;;;;;;13.77;7.93;;;;;;;23.46;100.00;98249.78;4946940;28;20066;-91
2023/07/02 07:20:49;;;;;;;17.58;8.00;;;;;;;23.79;100.00;98250.56;4964334;28;20114;-91
2023/07/02 07:23:17;;;;;;;14.38;7.00;;;;;;;23.70;100.00;98259.47;4955393;28;20501;-92
2023/07/02 07:25:43;;;;;;;14.70;7.47;;;;;;;23.65;100.00;98254.47;4950613;28;20048;-92
2023/07/02 07:28:15;;;;;;;14.45;7.25;;;;;;;23.60;100.00;98255.88;4951048;28;20054;-91
2023/07/02 07:30:40;;;;;;;13.50;7.28;;;;;;;23.85;100.00;98263.56;4951288;28;20502;-92
2023/07/02 07:33:06;;;;;;;15.15;7.50;;;;;;;23.99;100.00;98251.47;4955629;28;20045;-92
2023/07/02 07:35:33;;;;;;;13.25;7.00;;;;;;;24.75;100.00;98270.75;4949092;28;20133;-91
2023/07/02 07:37:59;;;;;;;15.57;7.20;;;;;;;25.14;100.00;98270.72;4952748;28;20521;-91
2023/07/02 07:40:25;;;;;;;11.88;7.18;;;;;;;25.36;100.00;98255.94;4965566;28;20051;-91
2023/07/02 07:42:51;;;;;;;13.48;6.70;;;;;;;25.45;96.31;98251.47;4954648;28;20039;-92
2023/07/02 07:45:17;;;;;;;13.13;8.05;;;;;;;25.39;93.79;98246.63;4949823;28;20050;-92
2023/07/02 07:47:43;;;;;;;12.05;6.97;;;;;;;24.92;96.22;98266.47;4948776;28;20074;-92
2023/07/02 07:50:10;;;;;;;12.75;7.13;;;;;;;25.04;97.60;98266.28;4949625;28;20047;-91
2023/07/02 07:52:38;;;;;;;12.63;7.03;;;;;;;25.01;97.12;98264.72;4952161;28;20035;-91
2023/07/02 07:55:05;;;;;;;13.25;6.93;;;;;;;24.59;93.84;98263.19;4954831;28;20043;-93
2023/07/02 07:57:31;;;;;;;11.55;6.40;;;;;;;24.51;94.59;98271.19;4952860;28;20134;-91
2023/07/02 07:59:56;;;;;;;13.18;6.80;;;;;;;24.56;100.00;98271.59;4954073;28;20576;-92
2023/07/02 08:02:23;;;;;;;11.00;6.25;;;;;;;24.44;96.82;98255.53;4972617;28;20501;-91
2023/07/02 08:04:48;;;;;;;10.48;6.35;;;;;;;24.41;96.07;98275.72;4964281;28;20417;-92
2023/07/02 08:07:15;;;;;;;13.68;6.80;;;;;;;24.14;98.92;98262.81;4958861;28;20050;-93
2023/07/02 08:09:42;;;;;;;13.95;5.95;;;;;;;24.39;99.92;98281.28;4959495;28;20042;-92
2023/07/02 08:12:08;;;;;;;13.98;6.63;;;;;;;24.18;98.67;98258.78;4965834;28;20041;-91
2023/07/02 08:14:35;;;;;;;11.80;6.68;;;;;;;24.32;99.52;98271.13;4961666;28;20043;-92
2023/07/02 08:17:01;;;;;;;12.70;6.60;;;;;;;24.46;99.35;98272.56;4961803;28;20058;-92
2023/07/02 08:19:27;;;;;;;13.48;6.63;;;;;;;24.64;99.19;98284.50;4963186;28;20485;-91
2023/07/02 08:21:53;;;;;;;11.00;6.75;;;;;;;24.70;96.50;98283.94;4958484;28;20045;-93
2023/07/02 08:24:18;;;;;;;12.10;7.07;;;;;;;24.47;96.05;98260.72;4974998;28;20046;-91
2023/07/02 08:26:47;;;;;;;13.52;7.00;;;;;;;24.05;100.00;98278.09;4965552;28;20547;-91
2023/07/02 08:29:13;;;;;;;14.82;7.50;;;;;;;24.19;99.04;98261.38;4957911;28;20127;-92
2023/07/02 08:31:40;;;;;;;11.90;6.82;;;;;;;24.33;98.28;98262.84;4960089;28;20111;-92
2023/07/02 08:34:06;;;;;;;11.30;6.38;;;;;;;24.44;98.94;98258.25;4960504;28;20050;-91
2023/07/02 08:36:32;;;;;;;14.77;7.43;;;;;;;24.75;96.67;98261.75;4958361;28;20055;-91
2023/07/02 08:38:58;;;;;;;13.38;7.03;;;;;;;25.03;94.14;98273.59;4962849;28;20094;-92
2023/07/02 08:41:24;;;;;;;12.98;6.68;;;;;;;25.97;91.86;98272.78;4972034;28;20501;-92
2023/07/02 08:43:55;;;;;;;15.27;6.53;;;;;;;26.12;90.48;98257.66;4961940;28;20050;-92
2023/07/02 08:46:21;;;;;;;12.60;7.43;;;;;;;26.55;88.32;98277.88;4959175;28;20110;-92
2023/07/02 08:48:47;;;;;;;11.07;7.03;;;;;;;26.60;82.05;98272.00;4978669;28;20050;-93
2023/07/02 08:51:13;;;;;;;13.10;6.75;;;;;;;26.36;82.33;98278.00;4976988;28;20047;-91
2023/07/02 08:53:39;;;;;;;12.55;7.05;;;;;;;25.41;88.47;98280.00;4960192;28;20057;-92
2023/07/02 08:56:05;;;;;;;12.40;7.00;;;;;;;25.31;88.55;98254.66;4958824;28;20433;-93
2023/07/02 08:58:31;;;;;;;10.85;6.63;;;;;;;25.50;88.44;98273.66;4975766;28;20047;-93
2023/07/02 09:01:09;;;;;;;13.48;6.43;;;;;;;26.33;87.78;98281.06;4966343;28;20041;-92
2023/07/02 09:03:37;;;;;;;11.20;6.93;;;;;;;26.89;83.08;98262.69;4961179;28;20050;-92
2023/07/02 09:06:03;;;;;;;11.03;6.40;;;;;;;26.74;82.48;98257.81;4979193;28;20099;-93
2023/07/02 09:08:29;;;;;;;13.25;6.35;;;;;;;27.16;80.33;98281.69;4969548;28;20551;-94
2023/07/02 09:11:06;;;;;;;11.57;6.55;;;;;;;26.79;79.57;98255.47;4960723;28;20110;-91
2023/07/02 09:13:31;;;;;;;11.18;6.78;;;;;;;25.56;85.24;98273.06;4957183;28;20058;-94
2023/07/02 09:15:57;;;;;;;14.52;6.63;;;;;;;25.39;89.27;98277.44;4956457;28;20061;-94
2023/07/02 09:18:25;;;;;;;10.93;6.68;;;;;;;25.43;86.62;98269.81;4957794;28;20075;-93
2023/07/02 09:20:51;;;;;;;13.18;7.05;;;;;;;25.16;88.91;98266.00;4960296;28;20039;-91
2023/07/02 09:23:17;;;;;;;13.43;6.65;;;;;;;24.86;90.11;98279.78;4964531;28;20090;-93
2023/07/02 09:25:43;;;;;;;12.30;7.03;;;;;;;24.51;93.14;98279.34;4959519;28;20409;-93
2023/07/02 09:28:18;;;;;;;11.60;6.82;;;;;;;23.66;97.63;98263.44;4964123;28;20035;-93
2023/07/02 09:30:52;;;;;;;14.05;7.05;;;;;;;23.89;97.27;98288.59;4955508;28;20043;-92
2023/07/02 09:33:18;;;;;;;14.45;7.10;;;;;;;23.99;95.59;98279.47;4962500;28;20494;-93
2023/07/02 09:35:45;;;;;;;14.65;7.10;;;;;;;24.66;91.50;98257.16;4961574;28;20043;-93
2023/07/02 09:38:13;;;;;;;16.42;7.10;;;;;;;24.53;94.33;98265.63;4966685;28;20043;-94
2023/07/02 09:40:45;;;;;;;13.77;7.27;;;;;;;24.13;95.60;98264.63;4980365;28;20039;-94
2023/07/02 09:43:12;;;;;;;12.63;6.93;;;;;;;24.28;97.91;98272.41;4968453;28;20042;-94
2023/07/02 09:45:41;;;;;;;13.38;7.55;;;;;;;24.55;97.10;98269.03;4963385;28;20468;-94
2023/07/02 09:48:08;;;;;;;11.18;6.50;;;;;;;25.01;89.95;98254.69;4966453;28;20094;-93
2023/07/02 09:50:37;;;;;;;11.35;6.97;;;;;;;25.38;91.00;98283.03;4980985;28;20441;-93
2023/07/02 09:53:05;;;;;;;13.30;7.00;;;;;;;25.31;89.03;98277.31;4980293;28;20230;-91
2023/07/02 09:55:32;;;;;;;11.65;6.97;;;;;;;26.02;87.66;98273.19;4961922;28;20047;-93
2023/07/02 09:57:58;;;;;;;13.68;7.03;;;;;;;26.66;82.27;98268.63;4964104;28;20043;-92
2023/07/02 10:00:24;;;;;;;12.25;7.03;;;;;;;26.97;76.33;98251.84;4971134;28;20042;-92
2023/07/02 10:02:50;;;;;;;10.98;6.68;;;;;;;26.95;78.58;98262.06;4960499;28;20043;-92
2023/07/02 10:05:25;;;;;;;13.18;6.50;;;;;;;27.00;78.03;98276.09;4974293;28;20035;-94
2023/07/02 10:07:51;;;;;;;10.45;6.53;;;;;;;27.35;74.36;98257.97;4962104;28;20047;-92
2023/07/02 10:10:28;;;;;;;11.25;6.20;;;;;;;27.67;76.02;98249.09;4967010;28;20094;-93
2023/07/02 10:12:54;;;;;;;12.13;6.95;;;;;;;27.96;73.00;98256.97;4966769;29;20085;-95
2023/07/02 10:15:31;;;;;;;11.82;6.07;;;;;;;28.04;72.87;98245.19;4971860;29;20053;-96
2023/07/02 10:18:01;;;;;;;11.45;6.45;;;;;;;28.30;75.62;98257.91;4971552;29;20119;-96
2023/07/02 10:21:05;;;;;;;12.45;6.78;;;;;;;28.41;73.37;98252.13;4964687;29;20035;-96
2023/07/02 10:23:38;;;;;;;11.43;6.32;;;;;;;28.57;73.96;98237.69;4971099;29;20499;-95
2023/07/02 10:26:16;;;;;;;13.90;6.07;;;;;;;28.84;72.92;98234.63;4966530;28;20070;-93
2023/07/02 10:28:42;;;;;;;11.67;6.70;;;;;;;29.17;72.29;98264.75;4968573;28;20043;-96
2023/07/02 10:31:18;;;;;;;12.50;6.72;;;;;;;28.96;70.39;98235.13;4960490;28;20494;-95
2023/07/02 10:33:45;;;;;;;11.45;6.60;;;;;;;29.15;72.04;98266.81;4969023;28;20039;-93
2023/07/02 10:36:19;;;;;;;12.27;6.68;;;;;;;29.06;60.04;98256.84;4977625;28;20050;-95
2023/07/02 10:38:45;;;;;;;12.20;6.90;;;;;;;28.48;60.84;98239.53;4981712;28;20049;-96
2023/07/02 10:41:24;;;;;;;11.63;6.93;;;;;;;28.17;61.91;98255.66;4981269;28;20043;-95
2023/07/02 10:43:50;;;;;;;10.10;6.47;;;;;;;28.46;61.76;98250.63;4978317;28;20044;-96
2023/07/02 10:46:19;;;;;;;11.13;6.57;;;;;;;28.46;60.12;98241.56;4962523;28;20047;-95
2023/07/02 10:48:51;;;;;;;10.35;6.45;;;;;;;28.35;58.48;98245.47;4960692;28;20047;-94
2023/07/02 10:51:17;;;;;;;13.32;7.20;;;;;;;27.35;60.75;98245.19;4961421;29;20039;-95
2023/07/02 10:53:43;;;;;;;11.35;6.93;;;;;;;27.05;61.75;98232.81;4962015;29;20062;-94
2023/07/02 10:56:17;;;;;;;11.82;7.10;;;;;;;26.15;65.11;98246.41;4963818;29;20051;-96
2023/07/02 10:58:44;;;;;;;12.85;6.70;;;;;;;25.68;66.52;98237.50;4961811;28;20044;-95
2023/07/02 11:01:10;;;;;;;12.82;7.78;;;;;;;25.09;67.80;98248.53;4961488;29;20130;-96
2023/07/02 11:03:36;;;;;;;16.13;8.25;;;;;;;25.38;66.43;98250.34;4963029;29;20047;-93
2023/07/02 11:06:03;;;;;;;11.52;7.05;;;;;;;25.79;68.84;98264.53;4959889;29;20074;-96
2023/07/02 11:08:35;;;;;;;10.48;7.40;;;;;;;25.24;67.48;98259.84;4958920;29;20493;-96
2023/07/02 11:11:07;;;;;;;14.30;7.78;;;;;;;25.93;66.54;98264.06;4959758;29;20039;-96
2023/07/02 11:13:45;;;;;;;13.88;7.75;;;;;;;25.81;66.36;98260.66;4959058;29;20150;-94
2023/07/02 11:16:18;;;;;;;13.43;7.60;;;;;;;25.75;66.54;98244.91;4959514;29;20047;-95